createdAt,value
2022-11-24T00:01:30.717Z,0.90
2022-11-24T00:03:18.245Z,0.80
2022-11-24T00:05:06.097Z,0.90
2022-11-24T00:06:53.504Z,0.90
2022-11-24T00:08:42.423Z,0.90
2022-11-24T00:10:29.387Z,1.00
2022-11-24T00:12:16.753Z,0.90
2022-11-24T00:14:05.439Z,0.90
2022-11-24T00:15:52.494Z,0.90
2022-11-24T00:17:39.728Z,0.90
2022-11-24T00:19:27.422Z,0.90
2022-11-24T00:21:16.184Z,0.90
2022-11-24T00:23:03.519Z,0.80
2022-11-24T00:24:50.492Z,0.80
2022-11-24T00:26:37.734Z,0.80
2022-11-24T00:28:25.010Z,0.70
2022-11-24T00:30:12.471Z,0.70
2022-11-24T00:31:59.558Z,0.70
2022-11-24T00:33:48.246Z,0.70
2022-11-24T00:35:35.304Z,0.80
2022-11-24T00:37:22.384Z,0.70
2022-11-24T00:39:14.750Z,0.70
2022-11-24T00:41:01.858Z,0.70
2022-11-24T00:42:48.839Z,0.80
2022-11-24T00:44:36.097Z,0.80
2022-11-24T00:46:24.145Z,0.70
2022-11-24T00:48:11.502Z,0.80
2022-11-24T00:49:58.860Z,0.80
2022-11-24T00:51:46.450Z,0.80
2022-11-24T00:53:34.327Z,0.80
2022-11-24T00:55:21.622Z,0.80
2022-11-24T00:57:08.619Z,0.90
2022-11-24T00:58:55.985Z,0.90
2022-11-24T01:00:43.551Z,0.80
2022-11-24T01:02:30.608Z,0.70
2022-11-24T01:04:18.471Z,0.70
2022-11-24T01:06:08.093Z,0.70
2022-11-24T01:07:55.564Z,0.70
2022-11-24T01:09:45.593Z,0.70
2022-11-24T01:12:07.710Z,0.70
2022-11-24T01:13:59.815Z,0.70
2022-11-24T01:15:46.991Z,0.70
2022-11-24T01:17:34.343Z,0.60
2022-11-24T01:19:22.147Z,0.70
2022-11-24T01:21:10.400Z,0.70
2022-11-24T01:22:58.064Z,0.70
2022-11-24T01:24:45.755Z,0.70
2022-11-24T01:26:32.806Z,0.70
2022-11-24T01:28:20.064Z,0.70
2022-11-24T01:30:08.068Z,0.70
2022-11-24T01:31:55.130Z,0.70
2022-11-24T01:33:42.879Z,0.70
2022-11-24T01:35:29.882Z,0.60
2022-11-24T01:37:16.946Z,0.60
2022-11-24T01:39:04.292Z,0.60
2022-11-24T01:41:04.185Z,0.70
2022-11-24T01:42:52.976Z,0.60
2022-11-24T01:44:42.387Z,0.70
2022-11-24T01:46:34.452Z,0.70
2022-11-24T01:48:28.340Z,0.70
2022-11-24T01:50:17.041Z,0.60
2022-11-24T01:52:17.686Z,0.70
2022-11-24T01:54:14.111Z,0.60
2022-11-24T01:56:01.607Z,0.60
2022-11-24T01:58:01.777Z,0.60
2022-11-24T01:59:52.512Z,0.60
2022-11-24T02:01:45.895Z,0.60
2022-11-24T02:03:36.799Z,0.60
2022-11-24T02:05:32.023Z,0.70
2022-11-24T02:07:19.436Z,0.70
2022-11-24T02:09:16.633Z,0.70
2022-11-24T02:11:05.008Z,0.70
2022-11-24T02:12:55.650Z,0.70
2022-11-24T02:14:44.135Z,0.80
2022-11-24T02:16:34.301Z,0.70
2022-11-24T02:18:21.642Z,0.70
2022-11-24T02:20:10.660Z,0.70
2022-11-24T02:21:57.858Z,0.80
2022-11-24T02:24:11.110Z,0.80
2022-11-24T02:26:33.995Z,0.70
2022-11-24T02:28:23.505Z,0.70
2022-11-24T02:30:11.470Z,0.70
2022-11-24T02:32:03.252Z,0.60
2022-11-24T02:33:50.816Z,0.70
2022-11-24T02:35:38.502Z,0.60
2022-11-24T02:37:25.522Z,0.60
2022-11-24T02:39:14.103Z,0.60
2022-11-24T02:41:05.681Z,0.60
2022-11-24T02:43:01.550Z,0.50
2022-11-24T02:44:54.975Z,0.60
2022-11-24T02:46:42.350Z,0.60
2022-11-24T02:48:29.361Z,0.60
2022-11-24T02:50:16.686Z,0.60
2022-11-24T02:52:05.078Z,0.60
2022-11-24T02:53:52.131Z,0.60
2022-11-24T02:55:39.170Z,0.60
2022-11-24T02:57:26.447Z,0.60
2022-11-24T02:59:13.399Z,0.60
2022-11-24T03:01:00.690Z,0.60
2022-11-24T03:02:48.249Z,0.60
2022-11-24T03:04:36.196Z,0.60
2022-11-24T03:06:24.268Z,0.60
2022-11-24T03:08:12.958Z,0.60
2022-11-24T03:10:00.292Z,0.60
2022-11-24T03:11:47.496Z,0.50
2022-11-24T03:13:34.785Z,0.50
2022-11-24T03:15:23.109Z,0.50
2022-11-24T03:17:10.158Z,0.50
2022-11-24T03:18:57.438Z,0.50
2022-11-24T03:20:44.459Z,0.50
2022-11-24T03:22:32.176Z,0.50
2022-11-24T03:24:19.555Z,0.40
2022-11-24T03:26:10.771Z,0.50
2022-11-24T03:27:58.354Z,0.40
2022-11-24T03:29:45.608Z,0.50
2022-11-24T03:31:32.683Z,0.50
2022-11-24T03:33:19.779Z,0.50
2022-11-24T03:35:07.853Z,0.50
2022-11-24T03:36:54.849Z,0.60
2022-11-24T03:38:42.041Z,0.60
2022-11-24T03:40:29.391Z,0.60
2022-11-24T03:42:16.781Z,0.60
2022-11-24T03:44:03.970Z,0.60
2022-11-24T03:45:51.400Z,0.60
2022-11-24T03:47:38.401Z,0.50
2022-11-24T03:49:25.417Z,0.50
2022-11-24T03:51:12.787Z,0.50
2022-11-24T03:52:59.832Z,0.50
2022-11-24T03:54:47.926Z,0.50
2022-11-24T03:56:35.261Z,0.50
2022-11-24T03:58:22.976Z,0.40
2022-11-24T04:00:11.135Z,0.40
2022-11-24T04:01:58.490Z,0.50
2022-11-24T04:03:45.650Z,0.50
2022-11-24T04:05:33.544Z,0.50
2022-11-24T04:07:20.839Z,0.50
2022-11-24T04:09:09.338Z,0.40
2022-11-24T04:10:56.512Z,0.50
2022-11-24T04:12:46.518Z,0.50
2022-11-24T04:14:33.750Z,0.50
2022-11-24T04:16:21.031Z,0.50
2022-11-24T04:18:09.721Z,0.50
2022-11-24T04:19:57.214Z,0.50
2022-11-24T04:21:44.213Z,0.50
2022-11-24T04:23:31.506Z,0.50
2022-11-24T04:25:18.574Z,0.60
2022-11-24T04:27:05.644Z,0.60
2022-11-24T04:28:52.909Z,0.60
2022-11-24T04:30:44.866Z,0.60
2022-11-24T04:32:32.227Z,0.50
2022-11-24T04:34:19.562Z,0.50
2022-11-24T04:36:07.008Z,0.60
2022-11-24T04:37:54.302Z,0.50
2022-11-24T04:39:41.552Z,0.50
2022-11-24T04:41:28.605Z,0.40
2022-11-24T04:43:18.482Z,0.50
2022-11-24T04:45:07.038Z,0.40
2022-11-24T04:46:54.240Z,0.40
2022-11-24T04:48:42.276Z,0.40
2022-11-24T04:50:29.593Z,0.40
2022-11-24T04:52:18.064Z,0.40
2022-11-24T04:54:06.387Z,0.40
2022-11-24T04:55:53.703Z,0.40
2022-11-24T04:57:40.707Z,0.40
2022-11-24T04:59:27.791Z,0.40
2022-11-24T05:01:15.346Z,0.40
2022-11-24T05:03:02.376Z,0.40
2022-11-24T05:04:49.861Z,0.40
2022-11-24T05:06:37.305Z,0.40
2022-11-24T05:08:24.329Z,0.30
2022-11-24T05:10:30.634Z,0.30
2022-11-24T05:12:17.895Z,0.30
2022-11-24T05:14:04.955Z,0.20
2022-11-24T05:15:52.206Z,0.20
2022-11-24T05:17:39.850Z,0.30
2022-11-24T05:19:31.235Z,0.20
2022-11-24T05:21:19.508Z,0.20
2022-11-24T05:23:08.496Z,0.20
2022-11-24T05:24:55.696Z,0.20
2022-11-24T05:26:42.767Z,0.20
2022-11-24T05:28:30.551Z,0.20
2022-11-24T05:30:17.687Z,0.20
2022-11-24T05:32:05.097Z,0.20
2022-11-24T05:33:52.537Z,0.20
2022-11-24T05:35:40.501Z,0.20
2022-11-24T05:37:28.780Z,0.20
2022-11-24T05:39:16.476Z,0.30
2022-11-24T05:41:05.714Z,0.20
2022-11-24T05:42:53.005Z,0.20
2022-11-24T05:44:40.453Z,0.20
2022-11-24T05:46:28.074Z,0.20
2022-11-24T05:48:16.381Z,0.20
2022-11-24T05:50:04.853Z,0.20
2022-11-24T05:51:52.060Z,0.20
2022-11-24T05:53:39.528Z,0.20
2022-11-24T05:55:27.586Z,0.20
2022-11-24T05:57:16.299Z,0.20
2022-11-24T05:59:09.439Z,0.20
2022-11-24T06:00:57.278Z,0.20
2022-11-24T06:02:44.352Z,0.20
2022-11-24T06:04:32.599Z,0.20
2022-11-24T06:06:20.234Z,0.10
2022-11-24T06:08:07.361Z,0.10
2022-11-24T06:09:54.513Z,0.10
2022-11-24T06:11:41.908Z,0.00
2022-11-24T06:13:29.177Z,0.00
2022-11-24T06:15:17.474Z,0.00
2022-11-24T06:17:05.391Z,-0.10
2022-11-24T06:18:55.842Z,-0.10
2022-11-24T06:20:53.117Z,-0.10
2022-11-24T06:22:50.514Z,-0.10
2022-11-24T06:24:37.582Z,-0.10
2022-11-24T06:26:24.833Z,-0.20
2022-11-24T06:28:12.439Z,-0.30
2022-11-24T06:29:59.512Z,-0.30
2022-11-24T06:31:46.559Z,-0.30
2022-11-24T06:33:35.529Z,-0.30
2022-11-24T06:35:22.668Z,-0.30
2022-11-24T06:37:10.501Z,-0.30
2022-11-24T06:38:57.802Z,-0.40
2022-11-24T06:40:44.886Z,-0.40
2022-11-24T06:42:32.008Z,-0.50
2022-11-24T06:44:19.762Z,-0.50
2022-11-24T06:46:07.038Z,-0.40
2022-11-24T06:47:55.367Z,-0.50
2022-11-24T06:49:42.792Z,-0.40
2022-11-24T06:51:29.930Z,-0.40
2022-11-24T06:53:17.290Z,-0.40
2022-11-24T06:55:05.208Z,-0.40
2022-11-24T06:56:57.442Z,-0.40
2022-11-24T06:58:47.539Z,-0.40
2022-11-24T07:00:35.069Z,-0.40
2022-11-24T07:02:22.295Z,-0.40
2022-11-24T07:04:10.383Z,-0.30
2022-11-24T07:05:58.525Z,-0.10
2022-11-24T07:07:45.699Z,-0.10
2022-11-24T07:09:33.017Z,-0.20
2022-11-24T07:11:22.794Z,-0.20
2022-11-24T07:13:10.634Z,-0.30
2022-11-24T07:14:57.696Z,-0.30
2022-11-24T07:16:45.242Z,-0.40
2022-11-24T07:18:32.440Z,-0.40
2022-11-24T07:20:19.872Z,-0.30
2022-11-24T07:22:07.442Z,-0.30
2022-11-24T07:23:57.062Z,-0.30
2022-11-24T07:25:44.632Z,-0.30
2022-11-24T07:27:32.188Z,-0.30
2022-11-24T07:29:19.332Z,-0.30
2022-11-24T07:31:12.311Z,-0.30
2022-11-24T07:33:01.922Z,-0.30
2022-11-24T07:34:49.432Z,-0.30
2022-11-24T07:36:36.647Z,-0.30
2022-11-24T07:38:24.042Z,-0.30
2022-11-24T07:40:11.595Z,-0.30
2022-11-24T07:42:00.089Z,-0.30
2022-11-24T07:43:48.532Z,-0.30
2022-11-24T07:45:35.953Z,-0.30
2022-11-24T07:47:23.271Z,-0.30
2022-11-24T07:49:11.260Z,-0.30
2022-11-24T07:51:02.783Z,-0.30
2022-11-24T07:52:50.333Z,-0.20
2022-11-24T07:54:37.604Z,-0.10
2022-11-24T07:56:24.697Z,-0.10
2022-11-24T07:58:11.711Z,-0.10
2022-11-24T07:59:59.134Z,-0.10
2022-11-24T08:01:46.840Z,-0.10
2022-11-24T08:03:35.557Z,0.00
2022-11-24T08:05:23.256Z,0.00
2022-11-24T08:07:10.509Z,0.00
2022-11-24T08:08:58.488Z,0.00
2022-11-24T08:10:45.856Z,0.00
2022-11-24T08:12:32.896Z,0.00
2022-11-24T08:14:20.182Z,0.00
2022-11-24T08:16:13.245Z,0.00
2022-11-24T08:18:02.694Z,0.00
2022-11-24T08:19:50.045Z,0.00
2022-11-24T08:21:37.941Z,0.00
2022-11-24T08:23:25.224Z,0.00
2022-11-24T08:25:14.621Z,0.00
2022-11-24T08:27:02.034Z,0.00
2022-11-24T08:28:57.520Z,0.00
2022-11-24T08:30:45.832Z,0.00
2022-11-24T08:32:33.340Z,0.00
2022-11-24T08:34:20.340Z,0.00
2022-11-24T08:36:10.192Z,0.10
2022-11-24T08:38:03.192Z,0.10
2022-11-24T08:39:52.471Z,0.10
2022-11-24T08:41:39.628Z,0.10
2022-11-24T08:43:27.378Z,0.10
2022-11-24T08:45:20.838Z,0.10
2022-11-24T08:47:09.314Z,0.00
2022-11-24T08:48:56.936Z,0.00
2022-11-24T08:50:44.016Z,0.10
2022-11-24T08:52:31.385Z,0.00
2022-11-24T08:54:18.990Z,0.00
2022-11-24T08:56:07.442Z,0.10
2022-11-24T08:57:54.726Z,0.10
2022-11-24T08:59:42.225Z,0.10
2022-11-24T09:01:29.986Z,0.10
2022-11-24T09:03:17.099Z,0.10
2022-11-24T09:05:07.224Z,0.10
2022-11-24T09:07:04.945Z,0.10
2022-11-24T09:08:54.407Z,0.10
2022-11-24T09:10:42.150Z,0.10
2022-11-24T09:12:29.416Z,0.00
2022-11-24T09:14:16.626Z,0.00
2022-11-24T09:16:06.467Z,0.00
2022-11-24T09:17:53.572Z,0.10
2022-11-24T09:19:43.797Z,0.10
2022-11-24T09:21:34.405Z,0.20
2022-11-24T09:23:21.741Z,0.20
2022-11-24T09:25:09.364Z,0.30
2022-11-24T09:26:57.119Z,0.30
2022-11-24T09:28:45.771Z,0.20
2022-11-24T09:30:33.059Z,0.10
2022-11-24T09:32:20.501Z,0.10
2022-11-24T09:34:12.441Z,0.20
2022-11-24T09:36:00.488Z,0.10
2022-11-24T09:37:48.394Z,0.10
2022-11-24T09:39:35.711Z,0.10
2022-11-24T09:41:23.272Z,0.10
2022-11-24T09:43:28.970Z,0.10
2022-11-24T09:45:42.023Z,0.10
2022-11-24T09:47:56.264Z,0.00
2022-11-24T09:50:10.131Z,0.00
2022-11-24T09:51:57.988Z,0.00
2022-11-24T09:54:00.592Z,0.00
2022-11-24T09:55:50.904Z,0.10
2022-11-24T09:57:42.284Z,0.10
2022-11-24T09:59:29.749Z,0.20
2022-11-24T10:01:21.053Z,0.20
2022-11-24T10:03:19.728Z,0.20
2022-11-24T10:05:07.945Z,0.20
2022-11-24T10:07:19.587Z,0.30
2022-11-24T10:09:15.699Z,0.30
2022-11-24T10:11:11.492Z,0.30
2022-11-24T10:13:19.195Z,0.40
2022-11-24T10:16:12.601Z,0.50
2022-11-24T10:18:17.002Z,0.60
2022-11-24T10:20:36.911Z,0.50
2022-11-24T10:22:42.930Z,0.50
2022-11-24T10:25:13.336Z,0.50
2022-11-24T10:27:04.032Z,0.60
2022-11-24T10:28:56.133Z,0.70
2022-11-24T10:30:43.987Z,0.70
2022-11-24T10:32:41.171Z,0.70
2022-11-24T10:34:37.638Z,0.70
2022-11-24T10:36:44.325Z,0.60
2022-11-24T10:38:37.209Z,0.60
2022-11-24T10:41:05.460Z,0.50
2022-11-24T10:42:53.180Z,0.40
2022-11-24T10:44:42.370Z,0.40
2022-11-24T10:46:31.554Z,0.40
2022-11-24T10:48:26.099Z,0.50
2022-11-24T10:50:25.730Z,0.40
2022-11-24T10:52:18.930Z,0.40
2022-11-24T10:54:16.879Z,0.40
2022-11-24T10:56:05.426Z,0.50
2022-11-24T10:57:52.648Z,0.40
2022-11-24T10:59:40.907Z,0.50
2022-11-24T11:01:33.312Z,0.40
2022-11-24T11:03:26.208Z,0.40
2022-11-24T11:05:25.580Z,0.40
2022-11-24T11:07:25.197Z,0.40
2022-11-24T11:09:22.271Z,0.40
2022-11-24T11:11:20.424Z,0.40
2022-11-24T11:13:26.395Z,0.40
2022-11-24T11:15:23.312Z,0.40
2022-11-24T11:17:37.495Z,0.40
2022-11-24T11:19:49.026Z,0.50
2022-11-24T11:21:39.121Z,0.50
2022-11-24T11:23:30.518Z,0.40
2022-11-24T11:25:24.523Z,0.40
2022-11-24T11:27:23.291Z,0.40
2022-11-24T11:31:24.721Z,0.30
2022-11-24T11:35:33.990Z,0.30
2022-11-24T11:37:25.580Z,0.20
2022-11-24T11:39:26.847Z,0.20
2022-11-24T11:41:22.747Z,0.30
2022-11-24T11:43:25.055Z,0.30
2022-11-24T11:45:18.397Z,0.30
2022-11-24T11:47:38.036Z,0.30
2022-11-24T11:49:25.506Z,0.30
2022-11-24T11:51:31.512Z,0.30
2022-11-24T11:53:45.204Z,0.30
2022-11-24T11:55:54.772Z,0.30
2022-11-24T11:58:18.535Z,0.30
2022-11-24T12:00:18.953Z,0.30
2022-11-24T12:02:53.825Z,0.20
2022-11-24T12:04:57.194Z,0.30
2022-11-24T12:06:59.089Z,0.30
2022-11-24T12:09:23.726Z,0.20
2022-11-24T12:11:29.379Z,0.20
2022-11-24T12:13:41.374Z,0.20
2022-11-24T12:15:39.942Z,0.30
2022-11-24T12:17:45.067Z,0.40
2022-11-24T12:19:47.680Z,0.50
2022-11-24T12:21:49.617Z,0.60
2022-11-24T12:23:36.728Z,0.60
2022-11-24T12:25:47.978Z,0.70
2022-11-24T12:28:05.738Z,0.70
2022-11-24T12:30:02.856Z,0.60
2022-11-24T12:32:28.098Z,0.60
2022-11-24T12:34:15.439Z,0.50
2022-11-24T12:36:30.273Z,0.50
2022-11-24T12:38:42.846Z,0.50
2022-11-24T12:43:31.039Z,0.40
2022-11-24T12:45:31.967Z,0.40
2022-11-24T12:47:39.511Z,0.30
2022-11-24T12:49:53.666Z,0.30
2022-11-24T12:51:44.892Z,0.30
2022-11-24T12:53:37.463Z,0.40
2022-11-24T12:55:25.677Z,0.30
2022-11-24T12:57:19.413Z,0.20
2022-11-24T12:59:25.516Z,0.30
2022-11-24T13:01:21.933Z,0.40
2022-11-24T13:03:29.729Z,0.70
2022-11-24T13:05:36.162Z,0.60
2022-11-24T13:07:44.776Z,0.50
2022-11-24T13:09:32.442Z,0.40
2022-11-24T13:11:23.067Z,0.50
2022-11-24T13:13:17.804Z,0.50
2022-11-24T13:15:43.547Z,0.50
2022-11-24T13:17:33.736Z,0.40
2022-11-24T13:19:39.781Z,0.40
2022-11-24T13:21:30.399Z,0.40
2022-11-24T13:23:24.845Z,0.30
2022-11-24T13:25:20.410Z,0.30
2022-11-24T13:27:17.085Z,0.20
2022-11-24T13:29:18.203Z,0.20
2022-11-24T13:31:22.599Z,0.30
2022-11-24T13:33:16.968Z,0.30
2022-11-24T13:35:15.732Z,0.30
2022-11-24T13:37:26.668Z,0.40
2022-11-24T13:39:21.405Z,0.40
2022-11-24T13:41:27.588Z,0.40
2022-11-24T13:43:16.102Z,0.40
2022-11-24T13:45:07.075Z,0.50
2022-11-24T13:47:06.687Z,0.50
2022-11-24T13:48:59.438Z,0.40
2022-11-24T13:50:50.002Z,0.40
2022-11-24T13:52:44.864Z,0.40
2022-11-24T13:54:32.145Z,0.40
2022-11-24T13:56:24.736Z,0.40
2022-11-24T13:58:11.909Z,0.40
2022-11-24T14:00:04.003Z,0.40
2022-11-24T14:01:58.954Z,0.40
2022-11-24T14:04:28.595Z,0.30
2022-11-24T14:06:06.696Z,0.30
2022-11-24T14:07:55.032Z,0.30
2022-11-24T14:09:47.161Z,0.30
2022-11-24T14:11:34.455Z,0.30
2022-11-24T14:13:32.934Z,0.30
2022-11-24T14:15:34.199Z,0.30
2022-11-24T14:17:24.112Z,0.30
2022-11-24T14:19:11.849Z,0.30
2022-11-24T14:21:01.742Z,0.30
2022-11-24T14:22:49.640Z,0.40
2022-11-24T14:24:41.788Z,0.30
2022-11-24T14:26:38.238Z,0.30
2022-11-24T14:28:27.837Z,0.30
2022-11-24T14:30:15.657Z,0.20
2022-11-24T14:32:05.051Z,0.20
2022-11-24T14:34:13.323Z,0.20
2022-11-24T14:36:01.646Z,0.20
2022-11-24T14:37:48.859Z,0.30
2022-11-24T14:39:41.731Z,0.30
2022-11-24T14:41:33.619Z,0.20
2022-11-24T14:43:26.406Z,0.20
2022-11-24T14:45:18.002Z,0.20
2022-11-24T14:47:12.976Z,0.20
2022-11-24T14:49:00.247Z,0.20
2022-11-24T14:50:47.784Z,0.10
2022-11-24T14:52:36.069Z,0.20
2022-11-24T14:54:23.531Z,0.10
2022-11-24T14:56:28.789Z,0.10
2022-11-24T14:58:29.411Z,0.20
2022-11-24T15:00:24.861Z,0.20
2022-11-24T15:02:39.918Z,0.20
2022-11-24T15:05:01.402Z,0.30
2022-11-24T15:06:41.944Z,0.20
2022-11-24T15:08:37.283Z,0.20
2022-11-24T15:10:38.676Z,0.20
2022-11-24T15:12:36.908Z,0.20
2022-11-24T15:14:34.694Z,0.20
2022-11-24T15:16:25.529Z,0.20
2022-11-24T15:18:43.200Z,0.20
2022-11-24T15:20:35.225Z,0.20
2022-11-24T15:22:37.801Z,0.20
2022-11-24T15:24:24.912Z,0.30
2022-11-24T15:26:12.244Z,0.20
2022-11-24T15:28:03.629Z,0.20
2022-11-24T15:29:50.919Z,0.20
2022-11-24T15:31:44.216Z,0.20
2022-11-24T15:33:35.411Z,0.20
2022-11-24T15:35:23.746Z,0.20
2022-11-24T15:37:10.946Z,0.20
2022-11-24T15:38:58.397Z,0.20
2022-11-24T15:40:53.076Z,0.20
2022-11-24T15:42:40.635Z,0.30
2022-11-24T15:44:28.159Z,0.30
2022-11-24T15:46:15.998Z,0.30
2022-11-24T15:48:03.093Z,0.30
2022-11-24T15:49:50.526Z,0.30
2022-11-24T15:51:42.656Z,0.20
2022-11-24T15:53:32.666Z,0.30
2022-11-24T15:55:22.325Z,0.30
2022-11-24T15:57:11.229Z,0.20
2022-11-24T15:58:58.700Z,0.20
2022-11-24T16:00:46.297Z,0.20
2022-11-24T16:02:33.625Z,0.20
2022-11-24T16:04:21.144Z,0.20
2022-11-24T16:06:19.056Z,0.20
2022-11-24T16:08:16.276Z,0.20
2022-11-24T16:10:04.396Z,0.20
2022-11-24T16:11:52.098Z,0.20
2022-11-24T16:13:39.574Z,0.20
2022-11-24T16:15:27.524Z,0.20
2022-11-24T16:17:15.120Z,0.10
2022-11-24T16:19:02.329Z,0.10
2022-11-24T16:20:49.533Z,0.10
2022-11-24T16:22:37.007Z,0.20
2022-11-24T16:24:24.119Z,0.20
2022-11-24T16:26:11.222Z,0.20
2022-11-24T16:27:58.850Z,0.20
2022-11-24T16:29:45.966Z,0.20
2022-11-24T16:31:33.302Z,0.20
2022-11-24T16:33:20.753Z,0.30
2022-11-24T16:35:08.593Z,0.30
2022-11-24T16:36:56.046Z,0.30
2022-11-24T16:38:43.802Z,0.30
2022-11-24T16:40:32.017Z,0.20
2022-11-24T16:42:19.204Z,0.20
2022-11-24T16:44:06.658Z,0.20
2022-11-24T16:46:09.312Z,0.30
2022-11-24T16:47:56.436Z,0.20
2022-11-24T16:49:43.894Z,0.20
2022-11-24T16:51:34.966Z,0.20
2022-11-24T16:53:23.058Z,0.20
2022-11-24T16:55:11.826Z,0.30
2022-11-24T16:56:59.136Z,0.30
2022-11-24T16:58:46.203Z,0.20
2022-11-24T17:00:33.707Z,0.20
2022-11-24T17:02:20.918Z,0.20
2022-11-24T17:04:12.400Z,0.20
2022-11-24T17:06:01.066Z,0.20
2022-11-24T17:07:48.154Z,0.20
2022-11-24T17:09:40.361Z,0.20
2022-11-24T17:11:29.232Z,0.20
2022-11-24T17:13:16.367Z,0.10
2022-11-24T17:15:31.263Z,0.10
2022-11-24T17:17:13.074Z,0.10
2022-11-24T17:19:00.241Z,0.10
2022-11-24T17:20:47.855Z,0.10
2022-11-24T17:22:37.908Z,0.10
2022-11-24T17:24:25.276Z,0.10
2022-11-24T17:26:18.306Z,0.10
2022-11-24T17:28:06.439Z,0.10
2022-11-24T17:29:54.222Z,0.10
2022-11-24T17:31:41.617Z,0.10
2022-11-24T17:33:29.383Z,0.00
2022-11-24T17:35:17.771Z,0.00
2022-11-24T17:37:05.049Z,0.10
2022-11-24T17:38:53.079Z,0.00
2022-11-24T17:40:40.522Z,0.00
2022-11-24T17:42:28.044Z,0.00
2022-11-24T17:44:15.981Z,0.00
2022-11-24T17:46:04.859Z,0.10
2022-11-24T17:47:52.669Z,0.10
2022-11-24T17:49:40.451Z,0.10
2022-11-24T17:51:27.766Z,0.10
2022-11-24T17:53:15.074Z,0.20
2022-11-24T17:55:02.994Z,0.20
2022-11-24T17:56:50.272Z,0.20
2022-11-24T17:58:42.692Z,0.20
2022-11-24T18:00:31.207Z,0.20
2022-11-24T18:02:18.647Z,0.20
2022-11-24T18:04:05.835Z,0.20
2022-11-24T18:05:53.492Z,0.10
2022-11-24T18:07:40.683Z,0.10
2022-11-24T18:09:27.895Z,0.20
2022-11-24T18:11:24.710Z,0.20
2022-11-24T18:13:40.725Z,0.20
2022-11-24T18:15:22.237Z,0.20
2022-11-24T18:17:10.282Z,0.20
2022-11-24T18:19:14.885Z,0.20
2022-11-24T18:21:02.933Z,0.20
2022-11-24T18:23:04.969Z,0.30
2022-11-24T18:24:52.543Z,0.20
2022-11-24T18:26:40.937Z,0.20
2022-11-24T18:28:28.746Z,0.20
2022-11-24T18:30:16.255Z,0.20
2022-11-24T18:32:03.716Z,0.20
2022-11-24T18:33:51.213Z,0.20
2022-11-24T18:35:39.720Z,0.20
2022-11-24T18:37:30.482Z,0.20
2022-11-24T18:39:18.958Z,0.20
2022-11-24T18:41:06.466Z,0.20
2022-11-24T18:42:53.460Z,0.30
2022-11-24T18:44:42.415Z,0.20
2022-11-24T18:46:29.737Z,0.20
2022-11-24T18:48:16.915Z,0.30
2022-11-24T18:50:05.065Z,0.30
2022-11-24T18:51:52.957Z,0.30
2022-11-24T18:53:44.565Z,0.30
2022-11-24T18:55:32.202Z,0.30
2022-11-24T18:57:19.823Z,0.30
2022-11-24T18:59:07.427Z,0.30
2022-11-24T19:01:05.588Z,0.30
2022-11-24T19:02:53.721Z,0.20
2022-11-24T19:04:41.277Z,0.20
2022-11-24T19:06:39.591Z,0.20
2022-11-24T19:08:26.853Z,0.20
2022-11-24T19:10:15.990Z,0.20
2022-11-24T19:12:04.185Z,0.20
2022-11-24T19:13:51.808Z,0.20
2022-11-24T19:15:39.694Z,0.20
2022-11-24T19:17:27.537Z,0.20
2022-11-24T19:19:15.191Z,0.20
2022-11-24T19:21:02.347Z,0.20
2022-11-24T19:22:49.800Z,0.30
2022-11-24T19:24:37.485Z,0.30
2022-11-24T19:26:25.129Z,0.30
2022-11-24T19:28:13.179Z,0.30
2022-11-24T19:30:01.079Z,0.30
2022-11-24T19:31:48.652Z,0.30
2022-11-24T19:33:36.973Z,0.30
2022-11-24T19:35:24.746Z,0.30
2022-11-24T19:37:13.966Z,0.30
2022-11-24T19:39:04.946Z,0.30
2022-11-24T19:40:52.324Z,0.30
2022-11-24T19:42:39.385Z,0.30
2022-11-24T19:44:27.251Z,0.30
2022-11-24T19:46:17.456Z,0.30
2022-11-24T19:48:05.091Z,0.30
2022-11-24T19:49:52.574Z,0.30
2022-11-24T19:51:40.794Z,0.30
2022-11-24T19:53:28.832Z,0.30
2022-11-24T19:55:16.467Z,0.30
2022-11-24T19:57:03.858Z,0.30
2022-11-24T19:58:55.670Z,0.20
2022-11-24T20:00:43.150Z,0.20
2022-11-24T20:02:34.189Z,0.30
2022-11-24T20:04:21.904Z,0.30
2022-11-24T20:06:11.455Z,0.30
2022-11-24T20:07:59.539Z,0.30
2022-11-24T20:09:48.033Z,0.40
2022-11-24T20:11:36.574Z,0.40
2022-11-24T20:13:23.897Z,0.40
2022-11-24T20:15:11.618Z,0.40
2022-11-24T20:17:00.040Z,0.40
2022-11-24T20:18:51.823Z,0.40
2022-11-24T20:20:39.959Z,0.40
2022-11-24T20:22:28.851Z,0.50
2022-11-24T20:24:21.123Z,0.50
2022-11-24T20:26:13.421Z,0.50
2022-11-24T20:28:02.644Z,0.50
2022-11-24T20:29:51.206Z,0.50
2022-11-24T20:31:43.418Z,0.50
2022-11-24T20:33:31.890Z,0.50
2022-11-24T20:35:19.770Z,0.50
2022-11-24T20:37:13.296Z,0.50
2022-11-24T20:39:03.954Z,0.50
2022-11-24T20:40:51.300Z,0.50
2022-11-24T20:42:38.470Z,0.50
2022-11-24T20:44:27.513Z,0.50
2022-11-24T20:46:17.841Z,0.50
2022-11-24T20:48:05.381Z,0.50
2022-11-24T20:49:52.870Z,0.50
2022-11-24T20:51:44.223Z,0.50
2022-11-24T20:53:31.468Z,0.50
2022-11-24T20:55:19.018Z,0.50
2022-11-24T20:57:06.201Z,0.50
2022-11-24T20:58:54.263Z,0.50
2022-11-24T21:00:41.893Z,0.50
2022-11-24T21:02:29.364Z,0.50
2022-11-24T21:04:21.103Z,0.50
2022-11-24T21:06:09.758Z,0.50
2022-11-24T21:07:56.957Z,0.50
2022-11-24T21:09:44.593Z,0.50
2022-11-24T21:11:33.423Z,0.50
2022-11-24T21:13:20.851Z,0.50
2022-11-24T21:15:08.705Z,0.50
2022-11-24T21:16:56.051Z,0.50
2022-11-24T21:18:44.776Z,0.50
2022-11-24T21:20:34.110Z,0.50
2022-11-24T21:22:21.447Z,0.50
2022-11-24T21:24:14.701Z,0.50
2022-11-24T21:26:05.641Z,0.50
2022-11-24T21:27:53.631Z,0.50
2022-11-24T21:29:40.767Z,0.50
2022-11-24T21:31:27.857Z,0.40
2022-11-24T21:33:16.941Z,0.50
2022-11-24T21:35:04.232Z,0.40
2022-11-24T21:36:51.426Z,0.40
2022-11-24T21:38:38.903Z,0.40
2022-11-24T21:40:26.512Z,0.40
2022-11-24T21:42:13.815Z,0.40
2022-11-24T21:44:02.313Z,0.50
2022-11-24T21:45:49.737Z,0.50
2022-11-24T21:47:38.785Z,0.50
2022-11-24T21:49:26.331Z,0.50
2022-11-24T21:51:16.462Z,0.50
2022-11-24T21:53:04.220Z,0.50
2022-11-24T21:54:52.592Z,0.50
2022-11-24T21:56:40.061Z,0.50
2022-11-24T21:58:28.270Z,0.50
2022-11-24T22:00:16.400Z,0.50
2022-11-24T22:02:05.817Z,0.50
2022-11-24T22:03:55.988Z,0.50
2022-11-24T22:05:52.476Z,0.50
2022-11-24T22:07:39.928Z,0.50
2022-11-24T22:09:27.255Z,0.50
2022-11-24T22:11:17.992Z,0.50
2022-11-24T22:13:05.718Z,0.60
2022-11-24T22:14:53.111Z,0.60
2022-11-24T22:16:41.182Z,0.60
2022-11-24T22:18:32.170Z,0.60
2022-11-24T22:20:19.227Z,0.60
2022-11-24T22:22:06.556Z,0.60
2022-11-24T22:23:53.625Z,0.60
2022-11-24T22:25:40.886Z,0.60
2022-11-24T22:27:28.355Z,0.60
2022-11-24T22:29:15.676Z,0.60
2022-11-24T22:31:06.831Z,0.60
2022-11-24T22:32:54.666Z,0.60
2022-11-24T22:34:41.705Z,0.60
2022-11-24T22:36:30.134Z,0.60
2022-11-24T22:38:17.483Z,0.60
2022-11-24T22:40:04.777Z,0.60
2022-11-24T22:41:53.621Z,0.60
2022-11-24T22:43:42.319Z,0.60
2022-11-24T22:45:29.437Z,0.60
2022-11-24T22:47:16.467Z,0.60
2022-11-24T22:49:03.803Z,0.60
2022-11-24T22:50:50.764Z,0.60
2022-11-24T22:52:38.787Z,0.60
2022-11-24T22:54:26.120Z,0.60
2022-11-24T22:56:13.148Z,0.60
2022-11-24T22:58:00.139Z,0.60
2022-11-24T22:59:47.864Z,0.70
2022-11-24T23:01:34.912Z,0.70
2022-11-24T23:03:22.024Z,0.70
2022-11-24T23:05:09.660Z,0.70
2022-11-24T23:06:58.582Z,0.70
2022-11-24T23:08:45.706Z,0.70
2022-11-24T23:10:33.120Z,0.70
2022-11-24T23:12:20.089Z,0.70
2022-11-24T23:14:12.444Z,0.70
2022-11-24T23:16:05.498Z,0.70
2022-11-24T23:17:52.624Z,0.70
2022-11-24T23:19:39.646Z,0.70
2022-11-24T23:21:33.381Z,0.70
2022-11-24T23:23:20.473Z,0.70
2022-11-24T23:25:07.953Z,0.70
2022-11-24T23:26:55.238Z,0.70
2022-11-24T23:28:43.363Z,0.70
2022-11-24T23:30:30.299Z,0.70
2022-11-24T23:32:17.643Z,0.70
2022-11-24T23:34:04.686Z,0.70
2022-11-24T23:35:52.403Z,0.70
2022-11-24T23:38:05.931Z,0.70
2022-11-24T23:39:49.459Z,0.70
2022-11-24T23:41:36.618Z,0.70
2022-11-24T23:43:24.062Z,0.70
2022-11-24T23:45:11.266Z,0.80
2022-11-24T23:46:58.277Z,0.80
2022-11-24T23:48:45.986Z,0.80
2022-11-24T23:50:34.812Z,0.80
2022-11-24T23:52:21.800Z,0.80
2022-11-24T23:54:09.853Z,0.80
2022-11-24T23:55:56.843Z,0.80
2022-11-24T23:57:43.891Z,0.80
2022-11-24T23:59:31.257Z,0.80
